Time;durP1;ratioP1;P1;durP2;ratioP2;P2;SDS_P1;SDS_P2;PMS_P1;PMS_P2;Temp;Humidity;BMP_temperature;BMP_pressure;BME280_temperature;BME280_humidity;BME280_pressure;Samples;Min_cycle;Max_cycle;Signal;HPM_P1;HPM_P2
2022/01/20 00:00:14;;;;;;;;;;;;;;;;;;1031336;28;906;-36
2022/01/20 00:01:40;;;;;;;;;;;;;;;;;;1031396;28;851;-35
2022/01/20 00:02:10;;;;;;;;;;;;;;;;;;1031416;28;1017;-38
2022/01/20 00:02:41;;;;;;;;;;;;;;;;;;1031509;28;861;-36
2022/01/20 00:03:16;;;;;;;;;;;;;;;;;;1031431;28;950;-36
2022/01/20 00:03:47;;;;;;;;;;;;;;;;;;1031373;28;989;-35
2022/01/20 00:04:27;;;;;;;;;;;;;;;;;;1031531;28;1174;-37
2022/01/20 00:05:07;;;;;;;;;;;;;;;;;;1031575;28;807;-31
2022/01/20 00:07:10;;;;;;;;;;;;;;;;;;1031563;28;946;-35
2022/01/20 00:09:45;;;;;;;;;;;;;;;;;;1031441;28;1646;-37
2022/01/20 00:26:17;;;;;;;;;;;;;;;;;;1031390;28;898;-37
2022/01/20 00:26:52;;;;;;;;;;;;;;;;;;1031235;28;1019;-38
2022/01/20 00:27:25;;;;;;;;;;;;;;;;;;1031405;28;981;-35
2022/01/20 00:28:09;;;;;;;;;;;;;;;;;;1031345;28;906;-36
2022/01/20 00:28:43;;;;;;;;;;;;;;;;;;1031532;28;902;-37
2022/01/20 00:29:21;;;;;;;;;;;;;;;;;;1030886;28;1426;-33
2022/01/20 00:30:52;;;;;;;;;;;;;;;;;;1031018;28;954;-37
2022/01/20 00:31:39;;;;;;;;;;;;;;;;;;1031033;28;795;-38
2022/01/20 00:32:12;;;;;;;;;;;;;;;;;;1026907;28;982;-35
2022/01/20 00:33:48;;;;;;;;;;;;;;;;;;1027149;28;974;-38
2022/01/20 00:34:31;;;;;;;;;;;;;;;;;;1031023;28;911;-38
2022/01/20 00:37:15;;;;;;;;;;;;;;;;;;1027071;28;906;-36
2022/01/20 00:37:16;;;;;;;;;;;;;;;;;;1031092;28;1981;-35
2022/01/20 00:37:46;;;;;;;;;;;;;;;;;;1031315;28;865;-36
2022/01/20 00:38:17;;;;;;;;;;;;;;;;;;1031371;28;827;-37
2022/01/20 00:38:47;;;;;;;;;;;;;;;;;;1031383;28;830;-34
2022/01/20 00:39:18;;;;;;;;;;;;;;;;;;1031356;28;906;-38
2022/01/20 00:39:49;;;;;;;;;;;;;;;;;;1031227;28;1076;-34
2022/01/20 00:40:19;;;;;;;;;;;;;;;;;;1031473;28;1270;-35
2022/01/20 00:40:50;;;;;;;;;;;;;;;;;;1031236;28;901;-37
2022/01/20 00:41:20;;;;;;;;;;;;;;;;;;1031328;28;946;-36
2022/01/20 00:41:51;;;;;;;;;;;;;;;;;;1031380;28;843;-35
2022/01/20 00:42:22;;;;;;;;;;;;;;;;;;1031288;28;1310;-33
2022/01/20 00:42:53;;;;;;;;;;;;;;;;;;1031489;28;815;-37
2022/01/20 00:43:23;;;;;;;;;;;;;;;;;;1031285;28;1048;-38
2022/01/20 00:43:54;;;;;;;;;;;;;;;;;;1031398;28;807;-33
2022/01/20 00:44:24;;;;;;;;;;;;;;;;;;1031360;28;807;-36
2022/01/20 00:44:55;;;;;;;;;;;;;;;;;;1026939;28;898;-37
2022/01/20 00:45:25;;;;;;;;;;;;;;;;;;1026969;28;966;-37
2022/01/20 00:45:55;;;;;;;;;;;;;;;;;;1027098;28;1215;-35
2022/01/20 00:46:26;;;;;;;;;;;;;;;;;;1026862;28;1309;-37
2022/01/20 00:46:56;;;;;;;;;;;;;;;;;;1031056;28;922;-36
2022/01/20 00:47:27;;;;;;;;;;;;;;;;;;1030941;28;925;-37
2022/01/20 00:47:57;;;;;;;;;;;;;;;;;;1030957;28;938;-37
2022/01/20 00:48:27;;;;;;;;;;;;;;;;;;1027012;28;934;-37
2022/01/20 00:48:58;;;;;;;;;;;;;;;;;;1031301;28;1106;-35
2022/01/20 00:49:28;;;;;;;;;;;;;;;;;;1031282;28;902;-35
2022/01/20 00:49:58;;;;;;;;;;;;;;;;;;1031407;28;823;-35
2022/01/20 00:50:29;;;;;;;;;;;;;;;;;;1031217;28;913;-36
2022/01/20 00:50:59;;;;;;;;;;;;;;;;;;1035017;28;890;-32
2022/01/20 00:51:31;;;;;;;;;;;;;;;;;;1034994;28;831;-36
2022/01/20 00:52:02;;;;;;;;;;;;;;;;;;1034935;28;925;-36
2022/01/20 00:52:33;;;;;;;;;;;;;;;;;;1034821;28;819;-37
2022/01/20 00:53:04;;;;;;;;;;;;;;;;;;1026759;28;1275;-37
2022/01/20 00:53:34;;;;;;;;;;;;;;;;;;1027137;28;926;-38
2022/01/20 00:54:04;;;;;;;;;;;;;;;;;;1026867;28;946;-36
2022/01/20 00:54:35;;;;;;;;;;;;;;;;;;1027081;28;887;-36
2022/01/20 00:55:05;;;;;;;;;;;;;;;;;;1031364;28;866;-36
2022/01/20 00:55:38;;;;;;;;;;;;;;;;;;1031369;28;993;-35
2022/01/20 00:56:08;;;;;;;;;;;;;;;;;;1031204;28;867;-38
2022/01/20 00:56:39;;;;;;;;;;;;;;;;;;1031468;28;807;-37
2022/01/20 00:57:09;;;;;;;;;;;;;;;;;;1031395;28;1981;-37
2022/01/20 00:57:39;;;;;;;;;;;;;;;;;;1032385;28;989;-37
2022/01/20 00:58:10;;;;;;;;;;;;;;;;;;1031889;28;893;-36
2022/01/20 00:58:40;;;;;;;;;;;;;;;;;;1032305;28;922;-34
2022/01/20 00:59:11;;;;;;;;;;;;;;;;;;1032257;28;969;-36
2022/01/20 00:59:41;;;;;;;;;;;;;;;;;;1032092;28;934;-35
2022/01/20 01:00:12;;;;;;;;;;;;;;;;;;1032090;28;890;-35
2022/01/20 01:00:43;;;;;;;;;;;;;;;;;;1032132;28;1021;-36
2022/01/20 01:01:13;;;;;;;;;;;;;;;;;;1032111;28;887;-33
2022/01/20 01:01:44;;;;;;;;;;;;;;;;;;1032209;28;874;-36
2022/01/20 01:02:15;;;;;;;;;;;;;;;;;;1027606;28;831;-38
2022/01/20 01:02:45;;;;;;;;;;;;;;;;;;1027857;28;890;-36
2022/01/20 01:03:17;;;;;;;;;;;;;;;;;;1027794;28;934;-36
2022/01/20 01:03:47;;;;;;;;;;;;;;;;;;1027913;28;776;-36
2022/01/20 01:04:17;;;;;;;;;;;;;;;;;;1032106;28;1214;-37
2022/01/20 01:04:48;;;;;;;;;;;;;;;;;;1035620;28;1307;-37
2022/01/20 01:05:18;;;;;;;;;;;;;;;;;;1036007;28;799;-37
2022/01/20 01:07:05;;;;;;;;;;;;;;;;;;1029717;28;1235;-35
2022/01/20 01:08:12;;;;;;;;;;;;;;;;;;1031832;28;933;-34
2022/01/20 01:08:42;;;;;;;;;;;;;;;;;;1027574;28;1442;-36
2022/01/20 01:09:13;;;;;;;;;;;;;;;;;;1027781;28;2129;-38
2022/01/20 01:09:45;;;;;;;;;;;;;;;;;;1027736;28;1118;-38
2022/01/20 01:10:22;;;;;;;;;;;;;;;;;;1031817;28;1149;-38
2022/01/20 01:10:53;;;;;;;;;;;;;;;;;;1035834;28;949;-37
2022/01/20 01:11:24;;;;;;;;;;;;;;;;;;1035726;28;811;-38
2022/01/20 01:11:59;;;;;;;;;;;;;;;;;;1034860;28;949;-35
2022/01/20 01:12:39;;;;;;;;;;;;;;;;;;1032078;28;859;-38
2022/01/20 01:13:13;;;;;;;;;;;;;;;;;;1032139;28;1004;-38
2022/01/20 01:13:43;;;;;;;;;;;;;;;;;;1032109;28;954;-35
2022/01/20 01:14:16;;;;;;;;;;;;;;;;;;1032059;28;815;-35
2022/01/20 01:14:51;;;;;;;;;;;;;;;;;;1032069;28;966;-36
2022/01/20 01:15:26;;;;;;;;;;;;;;;;;;1027453;28;1466;-38
2022/01/20 01:15:57;;;;;;;;;;;;;;;;;;1027833;28;902;-38
2022/01/20 01:16:40;;;;;;;;;;;;;;;;;;1027726;28;935;-35
2022/01/20 01:20:15;;;;;;;;;;;;;;;;;;1027684;28;1190;-36
2022/01/20 01:22:04;;;;;;;;;;;;;;;;;;1031528;28;1118;-38
2022/01/20 01:22:46;;;;;;;;;;;;;;;;;;1031848;28;974;-37
2022/01/20 01:23:17;;;;;;;;;;;;;;;;;;1027528;28;954;-37
2022/01/20 01:23:47;;;;;;;;;;;;;;;;;;1027770;28;941;-35
2022/01/20 01:24:18;;;;;;;;;;;;;;;;;;1027632;28;835;-36
2022/01/20 01:24:52;;;;;;;;;;;;;;;;;;1023763;28;1319;-39
2022/01/20 01:25:22;;;;;;;;;;;;;;;;;;1023533;29;2429;-33
2022/01/20 01:25:55;;;;;;;;;;;;;;;;;;1023572;29;843;-38
2022/01/20 01:26:28;;;;;;;;;;;;;;;;;;1024631;28;804;-36
2022/01/20 01:26:58;;;;;;;;;;;;;;;;;;1027810;28;966;-37
2022/01/20 01:27:34;;;;;;;;;;;;;;;;;;1028177;28;843;-37
2022/01/20 01:28:04;;;;;;;;;;;;;;;;;;1027647;28;1013;-36
2022/01/20 01:28:35;;;;;;;;;;;;;;;;;;1027568;28;1030;-36
2022/01/20 01:29:22;;;;;;;;;;;;;;;;;;1027817;28;807;-33
2022/01/20 01:30:42;;;;;;;;;;;;;;;;;;1035765;28;1010;-38
2022/01/20 01:31:42;;;;;;;;;;;;;;;;;;1029014;28;905;-39
2022/01/20 01:32:16;;;;;;;;;;;;;;;;;;1023674;29;1249;-36
2022/01/20 01:32:52;;;;;;;;;;;;;;;;;;1027542;28;915;-37
2022/01/20 01:33:24;;;;;;;;;;;;;;;;;;1028911;28;875;-37
2022/01/20 01:34:05;;;;;;;;;;;;;;;;;;1035648;28;1632;-39
2022/01/20 01:34:39;;;;;;;;;;;;;;;;;;1033424;28;870;-38
2022/01/20 01:35:11;;;;;;;;;;;;;;;;;;1031642;28;962;-38
2022/01/20 01:35:42;;;;;;;;;;;;;;;;;;1035611;28;2082;-36
2022/01/20 01:36:13;;;;;;;;;;;;;;;;;;1031671;28;810;-36
2022/01/20 01:38:36;;;;;;;;;;;;;;;;;;1030472;28;1186;-38
2022/01/20 01:39:06;;;;;;;;;;;;;;;;;;1034112;28;815;-37
2022/01/20 01:39:36;;;;;;;;;;;;;;;;;;1035347;28;934;-35
2022/01/20 01:40:08;;;;;;;;;;;;;;;;;;1031601;28;1116;-33
2022/01/20 01:40:41;;;;;;;;;;;;;;;;;;1027585;28;1154;-37
2022/01/20 01:41:14;;;;;;;;;;;;;;;;;;1031563;28;1154;-37
2022/01/20 01:41:46;;;;;;;;;;;;;;;;;;1031583;28;796;-36
2022/01/20 01:42:23;;;;;;;;;;;;;;;;;;1032499;28;1438;-36
2022/01/20 01:42:54;;;;;;;;;;;;;;;;;;1034348;28;930;-34
2022/01/20 01:43:26;;;;;;;;;;;;;;;;;;1027514;28;1299;-34
2022/01/20 01:44:01;;;;;;;;;;;;;;;;;;1031597;28;1226;-38
2022/01/20 01:44:32;;;;;;;;;;;;;;;;;;1031512;28;816;-36
2022/01/20 01:45:08;;;;;;;;;;;;;;;;;;1032696;28;1205;-32
2022/01/20 01:45:40;;;;;;;;;;;;;;;;;;1030161;28;1394;-36
2022/01/20 01:46:15;;;;;;;;;;;;;;;;;;1031542;28;990;-35
2022/01/20 01:46:46;;;;;;;;;;;;;;;;;;1027559;28;1465;-36
2022/01/20 01:47:17;;;;;;;;;;;;;;;;;;1027609;28;1245;-36
2022/01/20 01:47:47;;;;;;;;;;;;;;;;;;1023224;29;1399;-37
2022/01/20 01:48:23;;;;;;;;;;;;;;;;;;1020320;29;1229;-38
2022/01/20 01:48:53;;;;;;;;;;;;;;;;;;1024328;28;1252;-33
2022/01/20 01:49:26;;;;;;;;;;;;;;;;;;1024548;28;1214;-36
2022/01/20 01:49:56;;;;;;;;;;;;;;;;;;1031467;28;1172;-38
2022/01/20 01:50:27;;;;;;;;;;;;;;;;;;1027595;28;1411;-36
2022/01/20 01:50:59;;;;;;;;;;;;;;;;;;1031576;28;883;-38
2022/01/20 01:51:30;;;;;;;;;;;;;;;;;;1031151;28;1344;-35
2022/01/20 01:52:02;;;;;;;;;;;;;;;;;;1027042;28;1696;-37
2022/01/20 01:52:33;;;;;;;;;;;;;;;;;;1023424;29;1176;-38
2022/01/20 01:53:04;;;;;;;;;;;;;;;;;;1019910;29;1170;-36
2022/01/20 01:53:36;;;;;;;;;;;;;;;;;;1023581;29;1283;-36
2022/01/20 01:54:06;;;;;;;;;;;;;;;;;;1019788;29;1311;-37
2022/01/20 01:54:37;;;;;;;;;;;;;;;;;;1027875;28;1186;-34
2022/01/20 01:55:08;;;;;;;;;;;;;;;;;;1027466;28;1307;-38
2022/01/20 01:55:42;;;;;;;;;;;;;;;;;;1028199;28;1357;-36
2022/01/20 01:56:13;;;;;;;;;;;;;;;;;;1027008;28;1237;-36
2022/01/20 01:56:46;;;;;;;;;;;;;;;;;;1027323;28;998;-38
2022/01/20 01:57:19;;;;;;;;;;;;;;;;;;1024318;28;1994;-35
2022/01/20 01:57:49;;;;;;;;;;;;;;;;;;1024068;28;1280;-34
2022/01/20 01:58:22;;;;;;;;;;;;;;;;;;1022676;29;989;-38
2022/01/20 01:59:09;;;;;;;;;;;;;;;;;;1019392;29;1354;-38
2022/01/20 01:59:57;;;;;;;;;;;;;;;;;;1027962;28;1166;-39
2022/01/20 02:01:00;;;;;;;;;;;;;;;;;;1034041;28;746;-35
2022/01/20 02:01:33;;;;;;;;;;;;;;;;;;1031417;28;1342;-37
2022/01/20 02:02:04;;;;;;;;;;;;;;;;;;1031504;28;1599;-35
2022/01/20 02:02:42;;;;;;;;;;;;;;;;;;1031638;28;1518;-38
2022/01/20 02:03:17;;;;;;;;;;;;;;;;;;1033535;28;1482;-38
2022/01/20 02:04:07;;;;;;;;;;;;;;;;;;1028279;28;1315;-38
2022/01/20 02:04:43;;;;;;;;;;;;;;;;;;1027560;28;1064;-35
2022/01/20 02:06:49;;;;;;;;;;;;;;;;;;1023225;29;1244;-37
2022/01/20 02:07:46;;;;;;;;;;;;;;;;;;1027714;28;1325;-38
2022/01/20 02:08:33;;;;;;;;;;;;;;;;;;1023390;29;1324;-39
2022/01/20 02:09:40;;;;;;;;;;;;;;;;;;1026859;28;902;-34
2022/01/20 02:18:12;;;;;;;;;;;;;;;;;;1033681;28;938;-33
2022/01/20 02:19:30;;;;;;;;;;;;;;;;;;1027616;28;1419;-36
2022/01/20 02:20:30;;;;;;;;;;;;;;;;;;1031523;28;1638;-37
2022/01/20 02:21:05;;;;;;;;;;;;;;;;;;1031523;28;2126;-37
2022/01/20 02:21:36;;;;;;;;;;;;;;;;;;1035520;28;859;-35
2022/01/20 02:22:08;;;;;;;;;;;;;;;;;;1026330;28;960;-37
2022/01/20 02:22:58;;;;;;;;;;;;;;;;;;1023332;29;1228;-37
2022/01/20 02:23:32;;;;;;;;;;;;;;;;;;1019576;29;796;-39
2022/01/20 02:24:03;;;;;;;;;;;;;;;;;;1022662;29;2177;-36
2022/01/20 02:24:34;;;;;;;;;;;;;;;;;;1027287;28;1270;-39
2022/01/20 02:25:04;;;;;;;;;;;;;;;;;;1027719;28;942;-37
2022/01/20 02:25:36;;;;;;;;;;;;;;;;;;1027374;28;1563;-37
2022/01/20 02:26:08;;;;;;;;;;;;;;;;;;1026977;28;1185;-38
2022/01/20 02:26:38;;;;;;;;;;;;;;;;;;1023363;29;1239;-35
2022/01/20 02:27:08;;;;;;;;;;;;;;;;;;1019632;29;1187;-33
2022/01/20 02:27:43;;;;;;;;;;;;;;;;;;1019577;29;1214;-33
2022/01/20 02:28:13;;;;;;;;;;;;;;;;;;1023175;29;1141;-35
2022/01/20 02:28:45;;;;;;;;;;;;;;;;;;1024085;28;1237;-36
2022/01/20 02:29:17;;;;;;;;;;;;;;;;;;1023780;28;1193;-38
2022/01/20 02:29:47;;;;;;;;;;;;;;;;;;1022958;29;1439;-36
2022/01/20 02:30:19;;;;;;;;;;;;;;;;;;1019463;29;827;-38
2022/01/20 02:30:49;;;;;;;;;;;;;;;;;;1023758;28;1365;-34
2022/01/20 02:31:20;;;;;;;;;;;;;;;;;;1027367;28;950;-38
2022/01/20 02:31:54;;;;;;;;;;;;;;;;;;1023457;29;1157;-37
2022/01/20 02:32:28;;;;;;;;;;;;;;;;;;1023525;29;875;-38
2022/01/20 02:33:00;;;;;;;;;;;;;;;;;;1027353;28;800;-38
2022/01/20 02:33:31;;;;;;;;;;;;;;;;;;1028815;28;1224;-33
2022/01/20 02:34:02;;;;;;;;;;;;;;;;;;1031293;28;950;-34
2022/01/20 02:34:35;;;;;;;;;;;;;;;;;;1030678;28;997;-37
2022/01/20 02:35:09;;;;;;;;;;;;;;;;;;1022871;29;1187;-36
2022/01/20 02:35:44;;;;;;;;;;;;;;;;;;1019671;29;772;-35
2022/01/20 02:36:19;;;;;;;;;;;;;;;;;;1023301;29;1336;-35
2022/01/20 02:36:50;;;;;;;;;;;;;;;;;;1025140;28;977;-36
2022/01/20 02:37:21;;;;;;;;;;;;;;;;;;1023313;29;1977;-36
2022/01/20 02:37:58;;;;;;;;;;;;;;;;;;1019349;29;1286;-36
2022/01/20 02:39:12;;;;;;;;;;;;;;;;;;1024526;28;1198;-34
2022/01/20 02:40:15;;;;;;;;;;;;;;;;;;1026146;28;1298;-38
2022/01/20 02:44:54;;;;;;;;;;;;;;;;;;1028561;28;1378;-38
2022/01/20 02:45:25;;;;;;;;;;;;;;;;;;1027383;28;1572;-38
2022/01/20 02:45:55;;;;;;;;;;;;;;;;;;1027314;28;930;-36
2022/01/20 02:46:26;;;;;;;;;;;;;;;;;;1024972;28;859;-38
2022/01/20 02:46:56;;;;;;;;;;;;;;;;;;1023422;28;812;-37
2022/01/20 02:47:28;;;;;;;;;;;;;;;;;;1023433;29;1138;-36
2022/01/20 02:47:58;;;;;;;;;;;;;;;;;;1023279;29;1001;-36
2022/01/20 02:48:28;;;;;;;;;;;;;;;;;;1023383;29;890;-35
2022/01/20 02:48:59;;;;;;;;;;;;;;;;;;1030568;28;1131;-38
2022/01/20 02:49:30;;;;;;;;;;;;;;;;;;1031345;28;1209;-36
2022/01/20 02:50:00;;;;;;;;;;;;;;;;;;1031299;28;953;-36
2022/01/20 02:50:31;;;;;;;;;;;;;;;;;;1031377;28;1236;-36
2022/01/20 02:51:01;;;;;;;;;;;;;;;;;;1031157;28;1236;-38
2022/01/20 02:51:32;;;;;;;;;;;;;;;;;;1031420;28;1351;-37
2022/01/20 02:52:06;;;;;;;;;;;;;;;;;;1027419;28;1292;-36
2022/01/20 02:52:36;;;;;;;;;;;;;;;;;;1026827;28;799;-38
2022/01/20 02:53:06;;;;;;;;;;;;;;;;;;1024002;28;843;-32
2022/01/20 02:53:37;;;;;;;;;;;;;;;;;;1023399;28;1165;-33
2022/01/20 02:54:09;;;;;;;;;;;;;;;;;;1027415;28;946;-36
2022/01/20 02:54:39;;;;;;;;;;;;;;;;;;1027358;28;2076;-34
2022/01/20 02:55:10;;;;;;;;;;;;;;;;;;1027523;28;1256;-41
2022/01/20 02:55:40;;;;;;;;;;;;;;;;;;1031384;28;768;-33
2022/01/20 02:56:11;;;;;;;;;;;;;;;;;;1031340;28;831;-36
2022/01/20 02:56:41;;;;;;;;;;;;;;;;;;1031440;28;792;-36
2022/01/20 02:57:12;;;;;;;;;;;;;;;;;;1031715;28;1922;-35
2022/01/20 02:57:42;;;;;;;;;;;;;;;;;;1031143;28;1193;-37
2022/01/20 02:58:13;;;;;;;;;;;;;;;;;;1031280;28;1005;-37
2022/01/20 02:58:43;;;;;;;;;;;;;;;;;;1027371;28;958;-38
2022/01/20 02:59:13;;;;;;;;;;;;;;;;;;1027317;28;803;-38
2022/01/20 02:59:44;;;;;;;;;;;;;;;;;;1027389;28;946;-37
2022/01/20 03:00:14;;;;;;;;;;;;;;;;;;1031173;28;1343;-38
2022/01/20 03:00:45;;;;;;;;;;;;;;;;;;1031437;28;1264;-36
2022/01/20 03:01:16;;;;;;;;;;;;;;;;;;1031271;28;807;-38
2022/01/20 03:01:46;;;;;;;;;;;;;;;;;;1030003;28;1116;-34
2022/01/20 03:02:17;;;;;;;;;;;;;;;;;;1027539;28;807;-38
2022/01/20 03:02:49;;;;;;;;;;;;;;;;;;1027307;28;1253;-36
2022/01/20 03:03:19;;;;;;;;;;;;;;;;;;1027167;28;1330;-33
2022/01/20 03:03:50;;;;;;;;;;;;;;;;;;1027239;28;1237;-37
2022/01/20 03:04:24;;;;;;;;;;;;;;;;;;1027410;28;1110;-37
2022/01/20 03:04:55;;;;;;;;;;;;;;;;;;1027942;28;1449;-38
2022/01/20 03:05:31;;;;;;;;;;;;;;;;;;1035412;28;1222;-37
2022/01/20 03:06:06;;;;;;;;;;;;;;;;;;1031237;28;1267;-38
2022/01/20 03:06:36;;;;;;;;;;;;;;;;;;1028695;28;1122;-37
2022/01/20 03:07:07;;;;;;;;;;;;;;;;;;1030576;28;1259;-38
2022/01/20 03:07:38;;;;;;;;;;;;;;;;;;1027309;28;1241;-36
2022/01/20 03:08:08;;;;;;;;;;;;;;;;;;1027346;28;800;-32
2022/01/20 03:08:39;;;;;;;;;;;;;;;;;;1027194;28;1214;-36
2022/01/20 03:09:10;;;;;;;;;;;;;;;;;;1027593;28;844;-37
2022/01/20 03:09:40;;;;;;;;;;;;;;;;;;1031167;28;1185;-37
2022/01/20 03:10:11;;;;;;;;;;;;;;;;;;1031450;28;957;-37
2022/01/20 03:10:44;;;;;;;;;;;;;;;;;;1031420;28;725;-37
2022/01/20 03:11:16;;;;;;;;;;;;;;;;;;1027061;28;1267;-37
2022/01/20 03:11:46;;;;;;;;;;;;;;;;;;1027424;28;851;-36
2022/01/20 03:12:17;;;;;;;;;;;;;;;;;;1027783;28;797;-36
2022/01/20 03:12:47;;;;;;;;;;;;;;;;;;1031560;28;755;-38
2022/01/20 03:13:18;;;;;;;;;;;;;;;;;;1031234;28;1188;-36
2022/01/20 03:13:48;;;;;;;;;;;;;;;;;;1035124;28;1275;-33
2022/01/20 03:14:19;;;;;;;;;;;;;;;;;;1035350;28;954;-35
2022/01/20 03:14:49;;;;;;;;;;;;;;;;;;1035456;28;779;-35
2022/01/20 03:15:19;;;;;;;;;;;;;;;;;;1039332;28;791;-35
2022/01/20 03:15:50;;;;;;;;;;;;;;;;;;1031337;28;997;-36
2022/01/20 03:16:20;;;;;;;;;;;;;;;;;;1031202;28;854;-37
2022/01/20 03:16:51;;;;;;;;;;;;;;;;;;1031292;28;1801;-37
2022/01/20 03:17:21;;;;;;;;;;;;;;;;;;1027147;28;1971;-35
2022/01/20 03:17:51;;;;;;;;;;;;;;;;;;1031270;28;934;-35
2022/01/20 03:18:22;;;;;;;;;;;;;;;;;;1031171;28;1169;-36
2022/01/20 03:18:52;;;;;;;;;;;;;;;;;;1031251;28;989;-35
2022/01/20 03:19:23;;;;;;;;;;;;;;;;;;1035388;28;810;-38
2022/01/20 03:19:54;;;;;;;;;;;;;;;;;;1035011;28;1426;-34
2022/01/20 03:20:24;;;;;;;;;;;;;;;;;;1031110;28;1335;-34
2022/01/20 03:20:54;;;;;;;;;;;;;;;;;;1031218;28;968;-39
2022/01/20 03:21:25;;;;;;;;;;;;;;;;;;1031113;28;843;-38
2022/01/20 03:21:55;;;;;;;;;;;;;;;;;;1027187;28;1169;-36
2022/01/20 03:22:26;;;;;;;;;;;;;;;;;;1027410;28;792;-35
2022/01/20 03:22:56;;;;;;;;;;;;;;;;;;1023058;29;1133;-36
2022/01/20 03:23:27;;;;;;;;;;;;;;;;;;1027306;28;1236;-36
2022/01/20 03:23:57;;;;;;;;;;;;;;;;;;1031103;28;1054;-35
2022/01/20 03:24:28;;;;;;;;;;;;;;;;;;1031369;28;927;-38
2022/01/20 03:24:58;;;;;;;;;;;;;;;;;;1035238;28;882;-38
2022/01/20 03:25:28;;;;;;;;;;;;;;;;;;1035251;28;1129;-34
2022/01/20 03:25:59;;;;;;;;;;;;;;;;;;1035307;28;882;-35
2022/01/20 03:26:29;;;;;;;;;;;;;;;;;;1031203;28;1237;-36
2022/01/20 03:27:00;;;;;;;;;;;;;;;;;;1027046;28;1275;-38
2022/01/20 03:27:30;;;;;;;;;;;;;;;;;;1023228;29;1276;-36
2022/01/20 03:28:01;;;;;;;;;;;;;;;;;;1027067;28;1177;-36
2022/01/20 03:28:33;;;;;;;;;;;;;;;;;;1027164;28;1142;-35
2022/01/20 03:29:04;;;;;;;;;;;;;;;;;;1027485;28;1468;-37
2022/01/20 03:29:35;;;;;;;;;;;;;;;;;;1026555;28;1041;-38
2022/01/20 03:30:06;;;;;;;;;;;;;;;;;;1027599;28;914;-35
2022/01/20 03:30:37;;;;;;;;;;;;;;;;;;1031149;28;1187;-36
2022/01/20 03:31:07;;;;;;;;;;;;;;;;;;1031141;28;1189;-36
2022/01/20 03:31:38;;;;;;;;;;;;;;;;;;1026983;28;1275;-38
2022/01/20 03:32:10;;;;;;;;;;;;;;;;;;1027368;28;1197;-38
2022/01/20 03:32:41;;;;;;;;;;;;;;;;;;1031138;28;1574;-36
2022/01/20 03:33:11;;;;;;;;;;;;;;;;;;1027648;28;827;-35
2022/01/20 03:33:42;;;;;;;;;;;;;;;;;;1030885;28;1276;-36
2022/01/20 03:34:12;;;;;;;;;;;;;;;;;;1023164;29;804;-38
2022/01/20 03:34:47;;;;;;;;;;;;;;;;;;1019800;29;1204;-36
2022/01/20 03:35:19;;;;;;;;;;;;;;;;;;1027145;28;1177;-37
2022/01/20 03:36:04;;;;;;;;;;;;;;;;;;1029893;28;1420;-38
2022/01/20 03:37:04;;;;;;;;;;;;;;;;;;1029716;28;1239;-38
2022/01/20 03:37:45;;;;;;;;;;;;;;;;;;1031062;28;1299;-38
2022/01/20 03:38:16;;;;;;;;;;;;;;;;;;1027158;28;1408;-37
2022/01/20 03:38:46;;;;;;;;;;;;;;;;;;1028825;28;2122;-34
2022/01/20 03:39:18;;;;;;;;;;;;;;;;;;1026876;28;1358;-37
2022/01/20 03:39:48;;;;;;;;;;;;;;;;;;1027048;28;1389;-36
2022/01/20 03:40:20;;;;;;;;;;;;;;;;;;1027107;28;1181;-34
2022/01/20 03:40:52;;;;;;;;;;;;;;;;;;1025453;28;1302;-38
2022/01/20 03:41:22;;;;;;;;;;;;;;;;;;1023154;28;1164;-39
2022/01/20 03:41:57;;;;;;;;;;;;;;;;;;1019966;29;1388;-37
2022/01/20 03:42:32;;;;;;;;;;;;;;;;;;1021048;29;1325;-36
2022/01/20 03:43:03;;;;;;;;;;;;;;;;;;1024501;28;1399;-37
2022/01/20 03:43:34;;;;;;;;;;;;;;;;;;1027735;28;1252;-36
2022/01/20 03:44:04;;;;;;;;;;;;;;;;;;1027287;28;1229;-37
2022/01/20 03:44:34;;;;;;;;;;;;;;;;;;1026794;28;1312;-38
2022/01/20 03:45:05;;;;;;;;;;;;;;;;;;1023399;29;1382;-39
2022/01/20 03:45:36;;;;;;;;;;;;;;;;;;1023210;28;919;-36
2022/01/20 03:46:12;;;;;;;;;;;;;;;;;;1027189;28;2267;-38
2022/01/20 03:46:42;;;;;;;;;;;;;;;;;;1027148;28;1202;-35
2022/01/20 03:47:13;;;;;;;;;;;;;;;;;;1027153;28;1261;-38
2022/01/20 03:47:43;;;;;;;;;;;;;;;;;;1031191;28;847;-35
2022/01/20 03:48:14;;;;;;;;;;;;;;;;;;1031069;28;1280;-35
2022/01/20 03:48:54;;;;;;;;;;;;;;;;;;1031159;28;1177;-38
2022/01/20 03:49:36;;;;;;;;;;;;;;;;;;1033868;28;981;-33
2022/01/20 03:50:59;;;;;;;;;;;;;;;;;;1032053;28;1386;-37
2022/01/20 03:51:02;;;;;;;;;;;;;;;;;;1030998;28;1207;-34
2022/01/20 03:51:34;;;;;;;;;;;;;;;;;;1026962;28;1197;-36
2022/01/20 03:52:05;;;;;;;;;;;;;;;;;;1019725;29;1206;-36
2022/01/20 03:52:37;;;;;;;;;;;;;;;;;;1023948;28;1397;-36
2022/01/20 03:53:07;;;;;;;;;;;;;;;;;;1023507;28;1178;-38
2022/01/20 03:53:39;;;;;;;;;;;;;;;;;;1023314;28;1339;-39
2022/01/20 03:54:13;;;;;;;;;;;;;;;;;;1026342;28;1706;-36
2022/01/20 03:55:02;;;;;;;;;;;;;;;;;;1026372;28;641;-36
2022/01/20 03:55:53;;;;;;;;;;;;;;;;;;1031203;28;1516;-35
2022/01/20 03:56:24;;;;;;;;;;;;;;;;;;1031155;28;1411;-38
2022/01/20 03:57:23;;;;;;;;;;;;;;;;;;1031187;28;1918;-35
2022/01/20 03:58:24;;;;;;;;;;;;;;;;;;1035266;28;1315;-36
2022/01/20 03:58:54;;;;;;;;;;;;;;;;;;1031008;28;1279;-34
2022/01/20 03:59:25;;;;;;;;;;;;;;;;;;1027138;28;1502;-35
2022/01/20 03:59:55;;;;;;;;;;;;;;;;;;1026801;28;1386;-36
2022/01/20 04:00:46;;;;;;;;;;;;;;;;;;1025954;28;734;-38
2022/01/20 04:01:46;;;;;;;;;;;;;;;;;;1030852;28;1422;-36
2022/01/20 04:02:45;;;;;;;;;;;;;;;;;;1031271;28;1028;-31
2022/01/20 04:03:41;;;;;;;;;;;;;;;;;;1031052;28;1243;-35
2022/01/20 04:04:24;;;;;;;;;;;;;;;;;;1027066;28;1310;-36
2022/01/20 04:05:09;;;;;;;;;;;;;;;;;;1023175;29;1627;-36
2022/01/20 04:06:05;;;;;;;;;;;;;;;;;;1026980;28;1178;-37
2022/01/20 04:06:44;;;;;;;;;;;;;;;;;;1031757;28;855;-35
2022/01/20 04:07:14;;;;;;;;;;;;;;;;;;1035140;28;791;-35
2022/01/20 04:07:45;;;;;;;;;;;;;;;;;;1031121;28;1157;-35
2022/01/20 04:08:15;;;;;;;;;;;;;;;;;;1031047;28;961;-35
2022/01/20 04:08:46;;;;;;;;;;;;;;;;;;1031084;28;1271;-34
2022/01/20 04:09:17;;;;;;;;;;;;;;;;;;1030926;28;926;-37
2022/01/20 04:09:47;;;;;;;;;;;;;;;;;;1026878;28;1166;-34
2022/01/20 04:10:18;;;;;;;;;;;;;;;;;;1027061;28;1271;-34
2022/01/20 04:10:48;;;;;;;;;;;;;;;;;;1022916;29;903;-37
2022/01/20 04:11:26;;;;;;;;;;;;;;;;;;1019046;29;855;-35
2022/01/20 04:11:56;;;;;;;;;;;;;;;;;;1019976;29;1154;-37
2022/01/20 04:12:26;;;;;;;;;;;;;;;;;;1024037;28;1541;-35
2022/01/20 04:12:57;;;;;;;;;;;;;;;;;;1023013;29;923;-34
2022/01/20 04:13:31;;;;;;;;;;;;;;;;;;1023109;29;915;-37
2022/01/20 04:14:03;;;;;;;;;;;;;;;;;;1023030;29;1319;-34
2022/01/20 04:14:36;;;;;;;;;;;;;;;;;;1027813;28;1241;-36
2022/01/20 04:15:09;;;;;;;;;;;;;;;;;;1028323;28;1253;-36
2022/01/20 04:15:41;;;;;;;;;;;;;;;;;;1030950;28;1209;-37
2022/01/20 04:16:15;;;;;;;;;;;;;;;;;;1030056;28;1285;-35
2022/01/20 04:17:02;;;;;;;;;;;;;;;;;;1027937;28;902;-35
2022/01/20 04:17:33;;;;;;;;;;;;;;;;;;1028182;28;1906;-37
2022/01/20 04:18:07;;;;;;;;;;;;;;;;;;1025774;28;892;-32
2022/01/20 04:18:37;;;;;;;;;;;;;;;;;;1027011;28;981;-38
2022/01/20 04:19:09;;;;;;;;;;;;;;;;;;1027126;28;938;-36
2022/01/20 04:19:39;;;;;;;;;;;;;;;;;;1023680;28;851;-37
2022/01/20 04:20:11;;;;;;;;;;;;;;;;;;1022981;29;1596;-37
2022/01/20 04:20:41;;;;;;;;;;;;;;;;;;1026899;28;1150;-36
2022/01/20 04:21:12;;;;;;;;;;;;;;;;;;1022953;29;2207;-33
2022/01/20 04:21:43;;;;;;;;;;;;;;;;;;1026951;28;1201;-37
2022/01/20 04:22:13;;;;;;;;;;;;;;;;;;1034864;28;1086;-35
2022/01/20 04:22:43;;;;;;;;;;;;;;;;;;1031413;28;1193;-35
2022/01/20 04:23:14;;;;;;;;;;;;;;;;;;1035080;28;985;-32
2022/01/20 04:23:44;;;;;;;;;;;;;;;;;;1031034;28;961;-34
2022/01/20 04:24:15;;;;;;;;;;;;;;;;;;1026887;28;1500;-37
2022/01/20 04:24:46;;;;;;;;;;;;;;;;;;1027105;28;977;-37
2022/01/20 04:25:16;;;;;;;;;;;;;;;;;;1023033;29;1175;-36
2022/01/20 04:25:47;;;;;;;;;;;;;;;;;;1022943;28;1221;-37
2022/01/20 04:26:18;;;;;;;;;;;;;;;;;;1027141;28;823;-37
2022/01/20 04:26:48;;;;;;;;;;;;;;;;;;1026965;28;1439;-36
2022/01/20 04:27:20;;;;;;;;;;;;;;;;;;1030837;28;1296;-37
2022/01/20 04:27:50;;;;;;;;;;;;;;;;;;1026968;28;911;-32
2022/01/20 04:28:21;;;;;;;;;;;;;;;;;;1030973;28;883;-31
2022/01/20 04:28:54;;;;;;;;;;;;;;;;;;1027134;28;1209;-34
2022/01/20 04:29:25;;;;;;;;;;;;;;;;;;1031020;28;1216;-34
2022/01/20 04:29:55;;;;;;;;;;;;;;;;;;1026743;28;903;-35
2022/01/20 04:30:28;;;;;;;;;;;;;;;;;;1023421;28;1469;-35
2022/01/20 04:30:58;;;;;;;;;;;;;;;;;;1028179;28;1210;-34
2022/01/20 04:31:30;;;;;;;;;;;;;;;;;;1024302;28;1210;-36
2022/01/20 04:32:00;;;;;;;;;;;;;;;;;;1024601;28;1175;-33
2022/01/20 04:32:31;;;;;;;;;;;;;;;;;;1023230;28;1184;-33
2022/01/20 04:33:01;;;;;;;;;;;;;;;;;;1026992;28;816;-37
2022/01/20 04:33:32;;;;;;;;;;;;;;;;;;1022976;29;1246;-34
2022/01/20 04:34:02;;;;;;;;;;;;;;;;;;1023035;28;989;-37
2022/01/20 04:34:33;;;;;;;;;;;;;;;;;;1026896;28;1284;-32
2022/01/20 04:35:03;;;;;;;;;;;;;;;;;;1027203;28;787;-37
2022/01/20 04:35:34;;;;;;;;;;;;;;;;;;1027082;28;1125;-34
2022/01/20 04:36:06;;;;;;;;;;;;;;;;;;1026944;28;807;-33
2022/01/20 04:36:40;;;;;;;;;;;;;;;;;;1023024;29;990;-35
2022/01/20 04:37:10;;;;;;;;;;;;;;;;;;1025326;28;1918;-34
2022/01/20 04:37:41;;;;;;;;;;;;;;;;;;1028121;28;1075;-36
2022/01/20 04:38:11;;;;;;;;;;;;;;;;;;1029120;28;1314;-36
2022/01/20 04:38:41;;;;;;;;;;;;;;;;;;1029463;28;1190;-35
2022/01/20 04:39:15;;;;;;;;;;;;;;;;;;1028929;28;1207;-35
2022/01/20 04:39:49;;;;;;;;;;;;;;;;;;1028111;28;1291;-37
2022/01/20 04:40:19;;;;;;;;;;;;;;;;;;1029140;28;1249;-37